createdAt,value
2023-03-13T00:00:58.198Z,70.50
2023-03-13T00:03:25.648Z,70.60
2023-03-13T00:05:59.368Z,70.60
2023-03-13T00:08:29.925Z,70.80
2023-03-13T00:10:57.291Z,70.80
2023-03-13T00:13:24.290Z,71.00
2023-03-13T00:16:00.424Z,71.00
2023-03-13T00:18:27.396Z,71.20
2023-03-13T00:21:06.166Z,71.20
2023-03-13T00:23:34.485Z,71.30
2023-03-13T00:26:04.688Z,71.30
2023-03-13T00:28:33.492Z,71.40
2023-03-13T00:31:18.750Z,71.40
2023-03-13T00:33:48.284Z,71.60
2023-03-13T00:36:18.072Z,71.60
2023-03-13T00:38:46.135Z,71.60
2023-03-13T00:41:16.495Z,71.90
2023-03-13T00:43:45.303Z,71.90
2023-03-13T00:46:14.384Z,71.80
2023-03-13T00:48:41.577Z,71.70
2023-03-13T00:51:08.859Z,71.70
2023-03-13T00:53:36.452Z,71.70
2023-03-13T00:56:06.995Z,71.70
2023-03-13T00:58:36.519Z,71.60
2023-03-13T01:01:10.741Z,71.60
2023-03-13T01:03:40.504Z,71.60
2023-03-13T01:06:11.554Z,71.50
2023-03-13T01:08:39.273Z,71.50
2023-03-13T01:11:11.805Z,71.30
2023-03-13T01:13:39.069Z,71.30
2023-03-13T01:16:07.477Z,71.10
2023-03-13T01:18:35.868Z,71.10
2023-03-13T01:21:04.032Z,71.10
2023-03-13T01:23:31.765Z,71.20
2023-03-13T01:25:58.932Z,71.20
2023-03-13T01:28:27.435Z,71.30
2023-03-13T01:30:54.789Z,71.40
2023-03-13T01:33:21.871Z,71.40
2023-03-13T01:35:49.128Z,71.40
2023-03-13T01:38:16.078Z,71.40
2023-03-13T01:40:48.341Z,71.40
2023-03-13T01:43:26.827Z,71.40
2023-03-13T01:46:05.628Z,71.40
2023-03-13T01:48:47.435Z,71.30
2023-03-13T01:51:18.474Z,71.30
2023-03-13T01:53:50.505Z,71.20
2023-03-13T01:56:31.555Z,71.20
2023-03-13T01:58:59.742Z,71.10
2023-03-13T02:01:28.564Z,71.00
2023-03-13T02:03:57.882Z,71.00
2023-03-13T02:06:31.222Z,71.10
2023-03-13T02:09:03.284Z,71.20
2023-03-13T02:11:49.161Z,71.20
2023-03-13T02:14:21.302Z,71.40
2023-03-13T02:16:52.076Z,71.30
2023-03-13T02:19:29.162Z,71.30
2023-03-13T02:22:11.039Z,71.50
2023-03-13T02:24:52.832Z,71.40
2023-03-13T02:27:19.924Z,71.50
2023-03-13T02:29:47.714Z,71.40
2023-03-13T02:32:15.055Z,71.40
2023-03-13T02:34:44.351Z,71.40
2023-03-13T02:37:13.855Z,71.60
2023-03-13T02:39:47.428Z,71.60
2023-03-13T02:42:17.746Z,71.60
2023-03-13T02:44:47.206Z,71.60
2023-03-13T02:47:22.413Z,71.70
2023-03-13T02:49:51.146Z,71.90
2023-03-13T02:52:25.677Z,71.80
2023-03-13T02:55:08.551Z,72.00
2023-03-13T02:57:35.686Z,72.00
2023-03-13T03:00:06.492Z,72.00
2023-03-13T03:02:34.439Z,72.00
2023-03-13T03:05:01.375Z,72.00
2023-03-13T03:07:28.362Z,72.10
2023-03-13T03:09:55.414Z,72.10
2023-03-13T03:12:22.485Z,72.20
2023-03-13T03:14:49.529Z,72.10
2023-03-13T03:17:17.560Z,72.20
2023-03-13T03:19:44.567Z,72.20
2023-03-13T03:22:11.569Z,72.10
2023-03-13T03:24:38.524Z,72.00
2023-03-13T03:27:05.677Z,72.00
2023-03-13T03:29:39.101Z,72.10
2023-03-13T03:32:06.829Z,72.00
2023-03-13T03:34:33.880Z,72.10
2023-03-13T03:37:00.850Z,72.20
2023-03-13T03:39:29.031Z,72.30
2023-03-13T03:41:56.329Z,72.40
2023-03-13T03:44:24.423Z,72.60
2023-03-13T03:46:54.868Z,72.70
2023-03-13T03:49:23.331Z,72.80
2023-03-13T03:51:50.678Z,72.90
2023-03-13T03:54:23.048Z,72.90
2023-03-13T03:56:49.958Z,73.00
2023-03-13T03:59:17.111Z,73.10
2023-03-13T04:01:47.187Z,73.10
2023-03-13T04:04:18.449Z,73.10
2023-03-13T04:06:49.794Z,73.20
2023-03-13T04:09:17.172Z,73.20
2023-03-13T04:11:44.198Z,73.30
2023-03-13T04:14:12.122Z,73.40
2023-03-13T04:16:39.401Z,73.40
2023-03-13T04:19:07.468Z,73.30
2023-03-13T04:21:36.112Z,73.20
2023-03-13T04:24:10.537Z,73.10
2023-03-13T04:26:40.056Z,73.80
2023-03-13T04:29:07.245Z,73.20
2023-03-13T04:31:57.213Z,73.10
2023-03-13T04:34:47.267Z,73.10
2023-03-13T04:37:35.509Z,73.10
2023-03-13T04:40:13.384Z,73.10
2023-03-13T04:43:03.447Z,73.10
2023-03-13T04:45:51.556Z,73.00
2023-03-13T04:48:46.817Z,73.00
2023-03-13T04:51:33.985Z,72.90
2023-03-13T04:54:29.970Z,72.80
2023-03-13T04:57:22.997Z,72.80
2023-03-13T05:00:11.591Z,72.80
2023-03-13T05:02:58.508Z,72.80
2023-03-13T05:05:43.867Z,72.70
2023-03-13T05:08:37.162Z,72.60
2023-03-13T05:11:19.112Z,72.50
2023-03-13T05:14:04.808Z,72.50
2023-03-13T05:16:49.360Z,72.60
2023-03-13T05:19:48.100Z,72.60
2023-03-13T05:22:41.000Z,72.60
2023-03-13T05:25:16.944Z,72.40
2023-03-13T05:28:22.096Z,72.30
2023-03-13T05:30:49.190Z,72.30
2023-03-13T05:33:31.562Z,72.30
2023-03-13T05:36:17.881Z,72.30
2023-03-13T05:39:08.975Z,72.50
2023-03-13T05:41:47.686Z,72.60
2023-03-13T05:44:14.850Z,72.80
2023-03-13T05:47:02.355Z,73.00
2023-03-13T05:49:50.461Z,73.10
2023-03-13T05:52:33.845Z,73.30
2023-03-13T05:55:23.922Z,73.30
2023-03-13T05:57:59.721Z,73.20
2023-03-13T06:00:43.843Z,73.10
2023-03-13T06:03:46.122Z,73.10
2023-03-13T06:06:14.832Z,73.00
2023-03-13T06:08:49.366Z,73.10
2023-03-13T06:11:16.439Z,73.10
2023-03-13T06:13:43.531Z,72.90
2023-03-13T06:16:26.242Z,72.80
2023-03-13T06:18:57.968Z,72.70
2023-03-13T06:21:25.163Z,72.70
2023-03-13T06:23:52.148Z,72.70
2023-03-13T06:26:19.133Z,72.60
2023-03-13T06:28:46.051Z,72.60
2023-03-13T06:31:13.151Z,72.50
2023-03-13T06:33:40.101Z,72.40
2023-03-13T06:36:07.525Z,72.50
2023-03-13T06:38:34.825Z,72.50
2023-03-13T06:41:01.825Z,72.40
2023-03-13T06:43:28.747Z,72.20
2023-03-13T06:45:55.809Z,72.10
2023-03-13T06:48:23.500Z,71.90
2023-03-13T06:50:50.651Z,71.90
2023-03-13T06:53:20.467Z,71.60
2023-03-13T06:55:49.049Z,71.30
2023-03-13T06:58:31.199Z,71.10
2023-03-13T07:01:05.874Z,70.80
2023-03-13T07:03:32.990Z,70.40
2023-03-13T07:06:00.505Z,70.20
2023-03-13T07:08:28.084Z,70.00
2023-03-13T07:10:59.975Z,69.80
2023-03-13T07:13:27.351Z,69.60
2023-03-13T07:15:54.504Z,69.30
2023-03-13T07:18:23.081Z,68.90
2023-03-13T07:20:58.776Z,68.70
2023-03-13T07:23:28.652Z,68.60
2023-03-13T07:26:00.889Z,68.40
2023-03-13T07:28:29.576Z,68.20
2023-03-13T07:31:03.366Z,68.00
2023-03-13T07:33:30.267Z,67.60
2023-03-13T07:35:57.154Z,67.30
2023-03-13T07:38:24.139Z,67.00
2023-03-13T07:40:53.213Z,66.70
2023-03-13T07:43:20.395Z,66.40
2023-03-13T07:45:54.185Z,66.10
2023-03-13T07:48:22.523Z,65.90
2023-03-13T07:51:42.525Z,65.60
2023-03-13T08:53:29.822Z,51.80
2023-03-13T08:55:56.765Z,51.00
2023-03-13T08:58:23.908Z,50.50
2023-03-13T09:00:50.916Z,49.90
2023-03-13T09:03:18.137Z,50.00
2023-03-13T09:05:56.011Z,49.70
2023-03-13T09:08:24.086Z,48.30
2023-03-13T09:10:58.832Z,48.30
2023-03-13T09:13:27.308Z,47.90
2023-03-13T09:16:01.451Z,47.10
2023-03-13T09:18:29.493Z,45.30
2023-03-13T09:20:56.584Z,43.50
2023-03-13T09:23:24.545Z,40.90
2023-03-13T09:25:56.436Z,39.80
2023-03-13T09:28:24.309Z,39.80
2023-03-13T09:30:51.382Z,39.30
2023-03-13T09:33:21.231Z,37.90
2023-03-13T09:35:51.004Z,37.70
2023-03-13T09:38:18.938Z,38.40
2023-03-13T09:41:04.966Z,38.10
2023-03-13T09:43:51.412Z,38.50
2023-03-13T09:46:50.502Z,38.20
2023-03-13T09:49:31.830Z,38.90
2023-03-13T09:52:14.115Z,38.90
2023-03-13T09:55:02.324Z,37.70
2023-03-13T09:57:29.121Z,38.50
2023-03-13T10:00:16.558Z,38.80
2023-03-13T10:02:46.592Z,39.90
2023-03-13T10:05:26.477Z,40.60
2023-03-13T10:08:02.017Z,40.90
2023-03-13T10:10:53.886Z,40.80
2023-03-13T10:13:44.195Z,40.80
2023-03-13T10:16:42.956Z,41.10
2023-03-13T10:19:15.767Z,41.40
2023-03-13T10:21:45.059Z,41.40
2023-03-13T10:24:27.266Z,40.30
2023-03-13T10:26:57.310Z,40.60
2023-03-13T10:29:30.250Z,40.70
2023-03-13T10:32:06.050Z,40.70
2023-03-13T10:34:53.200Z,41.10
2023-03-13T10:37:42.262Z,41.40
2023-03-13T10:40:35.736Z,41.70
2023-03-13T10:43:15.281Z,42.20
2023-03-13T10:45:42.314Z,43.20
2023-03-13T10:48:22.373Z,43.40
2023-03-13T10:50:52.599Z,43.90
2023-03-13T10:53:31.852Z,44.30
2023-03-13T10:56:13.896Z,44.70
2023-03-13T10:58:59.539Z,44.80
2023-03-13T11:01:41.940Z,45.20
2023-03-13T11:04:28.367Z,45.30
2023-03-13T11:07:22.981Z,45.70
2023-03-13T11:10:03.584Z,45.90
2023-03-13T11:12:34.867Z,45.90
2023-03-13T11:15:04.609Z,45.50
2023-03-13T11:17:38.930Z,44.80
2023-03-13T11:20:14.613Z,44.00
2023-03-13T11:23:10.338Z,43.90
2023-03-13T11:25:46.739Z,43.60
2023-03-13T11:28:47.500Z,43.90
2023-03-13T11:31:31.737Z,43.90
2023-03-13T11:34:04.779Z,43.10
2023-03-13T11:36:31.634Z,41.80
2023-03-13T11:39:04.666Z,39.10
2023-03-13T11:41:44.729Z,36.70
2023-03-13T11:44:20.794Z,36.80
2023-03-13T11:46:47.687Z,35.50
2023-03-13T11:49:14.513Z,34.40
2023-03-13T11:51:41.346Z,33.60
2023-03-13T11:54:23.557Z,31.80
2023-03-13T11:56:56.405Z,31.70
2023-03-13T11:59:39.200Z,30.90
2023-03-13T12:02:15.289Z,30.10
2023-03-13T12:04:44.308Z,29.60
2023-03-13T12:07:14.195Z,29.30
2023-03-13T12:09:43.521Z,29.10
2023-03-13T12:12:21.068Z,29.30
2023-03-13T12:14:59.841Z,29.70
2023-03-13T12:17:26.703Z,30.10
2023-03-13T12:20:06.436Z,31.30
2023-03-13T12:22:34.103Z,31.30
2023-03-13T12:25:06.202Z,30.20
2023-03-13T12:27:36.608Z,30.70
2023-03-13T12:30:06.478Z,31.10
2023-03-13T12:32:33.249Z,31.40
2023-03-13T12:35:15.415Z,31.80
2023-03-13T12:37:45.431Z,32.80
2023-03-13T12:40:12.327Z,34.00
2023-03-13T12:42:54.728Z,34.20
2023-03-13T12:45:24.313Z,35.40
2023-03-13T12:48:06.721Z,36.60
2023-03-13T12:51:00.120Z,36.70
2023-03-13T12:53:40.493Z,36.70
2023-03-13T12:56:13.365Z,36.70
2023-03-13T12:58:45.136Z,37.10
2023-03-13T13:01:26.418Z,37.70
2023-03-13T13:04:06.517Z,38.00
2023-03-13T13:06:53.543Z,37.80
2023-03-13T13:09:25.359Z,37.10
2023-03-13T13:11:52.602Z,36.40
2023-03-13T13:14:19.377Z,35.30
2023-03-13T13:16:50.783Z,34.90
2023-03-13T13:19:23.562Z,35.00
2023-03-13T13:22:13.657Z,35.50
2023-03-13T13:24:48.791Z,36.40
2023-03-13T13:27:45.444Z,36.90
2023-03-13T13:30:18.158Z,37.00
2023-03-13T13:32:46.335Z,36.10
2023-03-13T13:35:13.112Z,35.70
2023-03-13T13:37:40.660Z,35.30
2023-03-13T13:40:13.773Z,34.70
2023-03-13T13:42:51.661Z,34.30
2023-03-13T13:45:25.744Z,34.50
2023-03-13T13:48:12.505Z,35.10
2023-03-13T13:50:39.338Z,34.60
2023-03-13T13:53:30.563Z,34.20
2023-03-13T13:56:03.603Z,34.20
2023-03-13T13:58:31.039Z,33.90
2023-03-13T14:01:01.608Z,33.60
2023-03-13T14:03:29.682Z,33.40
2023-03-13T14:06:16.597Z,33.00
2023-03-13T14:08:45.150Z,32.60
2023-03-13T14:11:15.036Z,32.30
2023-03-13T14:13:42.177Z,32.50
2023-03-13T14:16:27.380Z,32.50
2023-03-13T14:18:54.360Z,32.50
2023-03-13T14:21:25.050Z,32.50
2023-03-13T14:23:51.921Z,32.90
2023-03-13T14:26:19.944Z,33.30
2023-03-13T14:28:49.416Z,33.50
2023-03-13T14:31:26.926Z,33.30
2023-03-13T14:33:55.408Z,33.70
2023-03-13T14:36:22.237Z,33.30
2023-03-13T14:38:59.171Z,33.40
2023-03-13T14:41:31.070Z,33.60
2023-03-13T14:44:12.157Z,34.60
2023-03-13T14:46:40.710Z,35.00
2023-03-13T14:49:19.285Z,35.20
2023-03-13T14:51:56.124Z,35.10
2023-03-13T14:54:27.608Z,35.40
2023-03-13T14:57:14.169Z,35.30
2023-03-13T14:59:41.133Z,35.40
2023-03-13T15:02:23.196Z,35.70
2023-03-13T15:04:51.163Z,35.70
2023-03-13T15:07:18.465Z,36.10
2023-03-13T15:09:46.501Z,36.70
2023-03-13T15:12:14.398Z,36.90
2023-03-13T15:14:45.091Z,37.10
2023-03-13T15:17:14.605Z,37.40
2023-03-13T15:19:41.718Z,37.50
2023-03-13T15:22:15.937Z,37.30
2023-03-13T15:24:46.777Z,38.10
2023-03-13T15:27:21.811Z,38.90
2023-03-13T15:29:48.674Z,39.40
2023-03-13T15:32:35.592Z,39.60
2023-03-13T15:35:08.234Z,40.10
2023-03-13T15:37:37.074Z,40.50
2023-03-13T15:40:07.806Z,40.90
2023-03-13T15:42:34.610Z,41.40
2023-03-13T15:45:01.654Z,41.60
2023-03-13T15:47:28.456Z,41.80
2023-03-13T15:49:55.271Z,42.00
2023-03-13T15:52:23.644Z,42.30
2023-03-13T15:54:51.155Z,42.40
2023-03-13T15:57:19.913Z,42.90
2023-03-13T15:59:46.782Z,43.20
2023-03-13T16:02:15.445Z,43.80
2023-03-13T16:04:42.701Z,44.70
2023-03-13T16:07:11.122Z,45.40
2023-03-13T16:09:38.047Z,46.30
2023-03-13T16:12:04.969Z,47.10
2023-03-13T16:14:31.845Z,47.60
2023-03-13T16:16:58.728Z,48.30
2023-03-13T16:19:25.588Z,48.70
2023-03-13T16:21:52.697Z,49.20
2023-03-13T16:24:20.681Z,50.00
2023-03-13T16:26:47.770Z,50.10
2023-03-13T16:29:16.341Z,50.80
2023-03-13T16:31:43.358Z,51.10
2023-03-13T16:34:10.272Z,51.40
2023-03-13T16:36:37.788Z,51.60
2023-03-13T16:39:10.942Z,52.00
2023-03-13T16:41:37.898Z,52.40
2023-03-13T16:44:04.999Z,52.50
2023-03-13T16:46:55.581Z,53.40
2023-03-13T16:49:31.277Z,53.10
2023-03-13T16:51:58.217Z,53.10
2023-03-13T16:54:25.210Z,53.50
2023-03-13T16:56:52.171Z,53.70
2023-03-13T16:59:19.668Z,54.00
2023-03-13T17:01:49.297Z,54.10
2023-03-13T17:04:16.386Z,54.10
2023-03-13T17:06:44.815Z,54.30
2023-03-13T17:09:15.700Z,54.40
2023-03-13T17:11:43.064Z,54.60
2023-03-13T17:14:10.427Z,55.30
2023-03-13T17:16:42.434Z,54.80
2023-03-13T17:19:18.506Z,55.00
2023-03-13T17:21:45.421Z,55.50
2023-03-13T17:24:12.311Z,55.60
2023-03-13T17:26:40.133Z,55.80
2023-03-13T17:29:08.035Z,56.00
2023-03-13T17:31:38.517Z,55.90
2023-03-13T17:34:06.329Z,55.70
2023-03-13T17:36:34.937Z,55.70
2023-03-13T17:39:04.611Z,55.80
2023-03-13T17:41:33.330Z,55.60
2023-03-13T17:44:00.432Z,55.70
2023-03-13T17:46:41.006Z,55.90
2023-03-13T17:49:08.339Z,56.20
2023-03-13T17:51:36.333Z,56.40
2023-03-13T17:54:03.455Z,56.80
2023-03-13T17:56:38.870Z,56.90
2023-03-13T17:59:11.134Z,56.70
2023-03-13T18:01:38.189Z,56.50
2023-03-13T18:04:05.422Z,56.50
2023-03-13T18:06:38.920Z,56.50
2023-03-13T18:09:08.752Z,56.50
2023-03-13T18:11:39.124Z,56.60
2023-03-13T18:14:06.877Z,56.70
2023-03-13T18:16:39.003Z,57.00
2023-03-13T18:19:07.733Z,57.40
2023-03-13T18:21:35.164Z,57.60
2023-03-13T18:24:02.842Z,57.80
2023-03-13T18:26:31.250Z,58.00
2023-03-13T18:29:00.347Z,58.70
2023-03-13T18:31:32.675Z,58.30
2023-03-13T18:34:00.159Z,58.50
2023-03-13T18:36:28.929Z,58.50
2023-03-13T18:38:56.839Z,59.00
2023-03-13T18:41:24.899Z,59.10
2023-03-13T18:43:52.215Z,59.10
2023-03-13T18:46:26.695Z,59.20
2023-03-13T18:48:54.818Z,59.50
2023-03-13T18:51:24.864Z,59.70
2023-03-13T18:53:53.637Z,59.80
2023-03-13T18:56:33.303Z,59.90
2023-03-13T18:59:00.572Z,59.90
2023-03-13T19:01:30.305Z,59.80
2023-03-13T19:04:00.003Z,60.10
2023-03-13T19:06:29.594Z,60.10
2023-03-13T19:08:58.463Z,60.30
2023-03-13T19:11:28.254Z,60.40
2023-03-13T19:13:56.075Z,61.20
2023-03-13T19:16:24.854Z,60.50
2023-03-13T19:18:52.170Z,60.50
2023-03-13T19:21:22.143Z,60.10
2023-03-13T19:23:49.981Z,60.00
2023-03-13T19:26:30.893Z,60.30
2023-03-13T19:28:59.083Z,60.90
2023-03-13T19:31:26.654Z,60.70
2023-03-13T19:33:54.401Z,60.80
2023-03-13T19:36:25.005Z,60.70
2023-03-13T19:38:51.979Z,60.80
2023-03-13T19:41:19.239Z,60.70
2023-03-13T19:43:47.917Z,61.00
2023-03-13T19:46:19.829Z,60.90
2023-03-13T19:48:47.231Z,60.90
2023-03-13T19:51:14.978Z,61.00
2023-03-13T19:53:42.045Z,61.30
2023-03-13T19:56:19.118Z,61.20
2023-03-13T19:58:48.493Z,61.20
2023-03-13T20:01:17.837Z,61.20
2023-03-13T20:03:46.319Z,61.30
2023-03-13T20:06:22.083Z,61.20
2023-03-13T20:08:49.804Z,61.60
2023-03-13T20:11:17.462Z,61.50
2023-03-13T20:13:44.491Z,61.40
2023-03-13T20:16:12.096Z,61.60
2023-03-13T20:18:40.288Z,61.60
2023-03-13T20:21:07.611Z,61.50
2023-03-13T20:23:34.689Z,61.50
2023-03-13T20:26:09.853Z,61.60
2023-03-13T20:28:43.106Z,61.90
2023-03-13T20:31:10.442Z,62.10
2023-03-13T20:33:38.131Z,62.20
2023-03-13T20:36:11.028Z,62.20
2023-03-13T20:38:39.101Z,62.20
2023-03-13T20:41:06.918Z,62.50
2023-03-13T20:43:34.620Z,62.70
2023-03-13T20:46:01.921Z,62.80
2023-03-13T20:48:29.548Z,63.00
2023-03-13T20:50:58.342Z,63.10
2023-03-13T20:53:26.643Z,63.10
2023-03-13T20:55:54.514Z,63.40
2023-03-13T20:58:21.896Z,63.50
2023-03-13T21:00:49.259Z,63.80
2023-03-13T21:03:17.627Z,63.90
2023-03-13T21:05:44.800Z,64.10
2023-03-13T21:08:11.917Z,64.40
2023-03-13T21:10:40.590Z,64.60
2023-03-13T21:13:08.945Z,65.00
2023-03-13T21:15:36.141Z,65.30
2023-03-13T21:18:03.530Z,65.80
2023-03-13T21:20:30.771Z,66.30
2023-03-13T21:22:57.722Z,66.80
2023-03-13T21:25:25.360Z,67.30
2023-03-13T21:27:52.374Z,67.70
2023-03-13T21:30:21.534Z,68.20
2023-03-13T21:32:48.977Z,68.50
2023-03-13T21:35:16.899Z,68.80
2023-03-13T21:37:44.196Z,69.30
2023-03-13T21:40:11.868Z,69.60
2023-03-13T21:42:38.874Z,70.00
2023-03-13T21:45:07.456Z,70.30
2023-03-13T21:47:37.075Z,70.70
2023-03-13T21:50:06.628Z,71.20
2023-03-13T21:52:40.643Z,71.70
2023-03-13T21:55:11.717Z,72.00
2023-03-13T21:57:38.865Z,72.10
2023-03-13T22:00:08.289Z,72.40
2023-03-13T22:02:36.987Z,72.60
2023-03-13T22:05:05.175Z,72.80
2023-03-13T22:07:32.125Z,73.00
2023-03-13T22:09:59.138Z,73.20
2023-03-13T22:12:26.787Z,73.60
2023-03-13T22:14:55.658Z,74.00
2023-03-13T22:17:23.695Z,74.20
2023-03-13T22:19:50.637Z,74.50
2023-03-13T22:22:19.993Z,74.60
2023-03-13T22:24:46.952Z,74.60
2023-03-13T22:27:15.433Z,74.50
2023-03-13T22:29:42.360Z,74.40
2023-03-13T22:32:09.816Z,74.30
2023-03-13T22:34:36.862Z,74.40
2023-03-13T22:37:03.842Z,74.40
2023-03-13T22:39:30.778Z,74.40
2023-03-13T22:41:57.713Z,74.60
2023-03-13T22:44:24.709Z,74.70
2023-03-13T22:46:51.600Z,74.70
2023-03-13T22:49:18.552Z,74.80
2023-03-13T22:51:45.492Z,74.90
2023-03-13T22:54:13.475Z,75.00
2023-03-13T22:56:40.340Z,75.20
2023-03-13T22:59:08.164Z,75.20
2023-03-13T23:01:35.085Z,75.20
2023-03-13T23:04:02.068Z,75.40
2023-03-13T23:06:28.977Z,75.40
2023-03-13T23:08:55.961Z,75.40
2023-03-13T23:11:22.987Z,75.50
2023-03-13T23:13:49.888Z,75.50
2023-03-13T23:16:16.985Z,75.70
2023-03-13T23:18:44.873Z,75.80
2023-03-13T23:21:14.153Z,75.80
2023-03-13T23:23:41.734Z,75.90
2023-03-13T23:26:14.250Z,75.90
2023-03-13T23:28:41.417Z,76.10
2023-03-13T23:31:17.082Z,76.10
2023-03-13T23:33:44.757Z,76.30
2023-03-13T23:36:14.848Z,76.50
2023-03-13T23:38:42.063Z,76.60
2023-03-13T23:41:13.959Z,76.70
2023-03-13T23:43:41.300Z,77.60
2023-03-13T23:46:22.473Z,76.80
2023-03-13T23:48:52.855Z,77.10
2023-03-13T23:51:19.779Z,77.10
2023-03-13T23:53:46.753Z,77.30
2023-03-13T23:56:13.728Z,77.60
2023-03-13T23:58:41.519Z,77.80
